createdAt,value
2022-08-19T00:00:52.194Z,23.25
2022-08-19T00:05:53.278Z,23.27
2022-08-19T00:10:54.434Z,23.28
2022-08-19T00:15:56.482Z,23.29
2022-08-19T00:20:59.652Z,23.28
2022-08-19T00:26:01.023Z,23.29
2022-08-19T00:31:04.723Z,23.27
2022-08-19T00:36:08.872Z,23.22
2022-08-19T00:41:15.535Z,23.16
2022-08-19T00:46:18.804Z,23.09
2022-08-19T00:51:19.964Z,23.04
2022-08-19T00:56:21.282Z,22.97
2022-08-19T01:01:22.549Z,22.91
2022-08-19T01:06:23.884Z,22.84
2022-08-19T01:11:26.655Z,22.78
2022-08-19T01:16:30.202Z,22.72
2022-08-19T01:21:40.659Z,22.63
2022-08-19T01:26:43.817Z,22.54
2022-08-19T01:31:44.928Z,22.46
2022-08-19T01:36:47.525Z,22.37
2022-08-19T01:41:49.401Z,22.31
2022-08-19T01:46:51.881Z,22.27
2022-08-19T01:51:54.039Z,22.24
2022-08-19T01:57:03.866Z,22.21
2022-08-19T02:02:08.901Z,22.15
2022-08-19T02:07:10.081Z,22.11
2022-08-19T02:12:11.290Z,22.07
2022-08-19T02:17:12.625Z,22.03
2022-08-19T02:22:14.344Z,22.00
2022-08-19T02:27:16.543Z,21.97
2022-08-19T02:32:21.607Z,21.95
2022-08-19T02:37:41.373Z,21.91
2022-08-19T02:42:42.907Z,21.88
2022-08-19T02:47:44.131Z,21.87
2022-08-19T02:52:45.590Z,21.87
2022-08-19T02:57:47.491Z,21.86
2022-08-19T03:02:48.873Z,21.85
2022-08-19T03:07:49.968Z,21.80
2022-08-19T03:12:51.975Z,21.80
2022-08-19T03:17:53.403Z,21.82
2022-08-19T03:22:55.478Z,21.85
2022-08-19T03:27:56.572Z,21.85
2022-08-19T03:32:58.018Z,21.81
2022-08-19T03:38:01.243Z,21.77
2022-08-19T03:43:03.044Z,21.73
2022-08-19T03:48:04.506Z,21.71
2022-08-19T03:53:06.568Z,21.70
2022-08-19T03:58:07.771Z,21.71
2022-08-19T04:03:09.239Z,21.73
2022-08-19T04:08:13.806Z,21.77
2022-08-19T04:13:17.259Z,21.82
2022-08-19T04:18:18.636Z,21.87
2022-08-19T04:23:19.954Z,21.93
2022-08-19T04:28:21.478Z,22.07
2022-08-19T04:33:26.490Z,22.19
2022-08-19T04:38:29.772Z,22.29
2022-08-19T04:43:32.368Z,22.38
2022-08-19T04:48:35.239Z,22.50
2022-08-19T04:53:38.241Z,22.66
2022-08-19T04:58:44.463Z,22.87
2022-08-19T05:03:45.589Z,23.10
2022-08-19T05:08:47.832Z,23.32
2022-08-19T05:13:49.431Z,23.58
2022-08-19T05:19:09.574Z,23.85
2022-08-19T05:24:12.826Z,24.12
2022-08-19T05:29:16.564Z,24.43
2022-08-19T05:34:22.034Z,24.82
2022-08-19T05:39:26.256Z,25.57
2022-08-19T05:44:32.683Z,27.32
2022-08-19T05:49:36.666Z,28.66
2022-08-19T05:54:42.861Z,29.66
2022-08-19T05:59:46.371Z,30.16
2022-08-19T06:04:47.463Z,30.66
2022-08-19T06:09:54.428Z,31.23
2022-08-19T06:15:05.629Z,32.12
2022-08-19T06:20:13.491Z,33.52
2022-08-19T06:25:15.638Z,35.17
2022-08-19T06:30:17.018Z,36.86
2022-08-19T06:35:18.246Z,38.14
2022-08-19T06:40:20.503Z,39.11
2022-08-19T06:45:24.849Z,40.14
2022-08-19T06:50:26.518Z,41.08
2022-08-19T06:55:29.397Z,41.65
2022-08-19T07:05:33.131Z,41.60
2022-08-19T07:10:35.254Z,41.44
2022-08-19T07:15:37.673Z,41.04
2022-08-19T07:20:42.243Z,41.15
2022-08-19T07:25:44.335Z,40.86
2022-08-19T07:30:45.752Z,40.46
2022-08-19T07:35:47.441Z,39.94
2022-08-19T07:40:48.785Z,39.34
2022-08-19T07:45:49.952Z,39.01
2022-08-19T07:50:54.848Z,38.83
2022-08-19T07:55:59.616Z,38.44
2022-08-19T08:01:01.924Z,38.08
2022-08-19T08:06:22.152Z,37.84
2022-08-19T08:11:23.939Z,37.96
2022-08-19T08:16:30.094Z,38.11
2022-08-19T08:21:32.478Z,38.20
2022-08-19T08:26:34.524Z,37.94
2022-08-19T08:31:36.745Z,37.66
2022-08-19T08:36:45.101Z,37.45
2022-08-19T08:42:17.724Z,37.26
2022-08-19T08:47:21.976Z,37.12
2022-08-19T08:52:31.807Z,36.90
2022-08-19T08:57:40.679Z,36.58
2022-08-19T09:02:43.809Z,36.39
2022-08-19T09:08:22.569Z,36.00
2022-08-19T09:13:31.565Z,35.80
2022-08-19T09:18:44.711Z,35.88
2022-08-19T09:23:46.416Z,35.73
2022-08-19T09:28:53.463Z,35.70
2022-08-19T09:33:57.355Z,35.80
2022-08-19T09:39:00.271Z,35.68
2022-08-19T09:44:03.202Z,35.42
2022-08-19T09:49:06.880Z,35.14
2022-08-19T09:54:11.170Z,35.01
2022-08-19T09:59:12.709Z,34.96
2022-08-19T10:04:20.155Z,34.94
2022-08-19T10:09:33.930Z,34.91
2022-08-19T10:14:37.329Z,34.79
2022-08-19T10:19:40.903Z,34.55
2022-08-19T10:24:54.354Z,34.37
2022-08-19T10:29:55.463Z,33.96
2022-08-19T10:34:57.194Z,33.99
2022-08-19T10:39:58.928Z,34.15
2022-08-19T10:45:00.197Z,33.96
2022-08-19T10:50:21.840Z,33.74
2022-08-19T10:55:47.964Z,33.71
2022-08-19T11:00:58.569Z,33.75
2022-08-19T11:06:07.130Z,33.82
2022-08-19T11:11:09.130Z,33.79
2022-08-19T11:16:14.292Z,33.77
2022-08-19T11:21:35.424Z,33.76
2022-08-19T11:26:38.931Z,33.82
2022-08-19T11:31:45.037Z,34.04
2022-08-19T11:36:47.813Z,34.17
2022-08-19T11:41:49.342Z,34.32
2022-08-19T11:46:50.474Z,34.41
2022-08-19T11:51:52.069Z,34.52
2022-08-19T11:56:55.352Z,34.54
2022-08-19T12:01:59.363Z,34.49
2022-08-19T12:07:00.508Z,34.47
2022-08-19T12:12:04.787Z,34.36
2022-08-19T12:17:08.696Z,34.26
2022-08-19T12:22:09.912Z,34.14
2022-08-19T12:27:12.492Z,34.13
2022-08-19T12:32:17.102Z,34.24
2022-08-19T12:37:18.287Z,34.36
2022-08-19T12:42:19.653Z,34.37
2022-08-19T12:47:21.225Z,34.29
2022-08-19T12:52:27.172Z,34.13
2022-08-19T12:57:32.754Z,34.16
2022-08-19T13:02:38.241Z,34.34
2022-08-19T13:07:41.198Z,34.54
2022-08-19T13:12:44.193Z,34.53
2022-08-19T13:17:45.405Z,34.45
2022-08-19T13:22:48.414Z,34.20
2022-08-19T13:27:50.994Z,34.06
2022-08-19T13:33:11.022Z,33.96
2022-08-19T13:38:14.297Z,34.02
2022-08-19T13:43:22.648Z,34.22
2022-08-19T13:48:27.041Z,34.40
2022-08-19T13:53:30.466Z,34.47
2022-08-19T13:58:31.850Z,34.29
2022-08-19T14:03:34.715Z,34.12
2022-08-19T14:08:42.099Z,34.05
2022-08-19T14:13:47.099Z,34.05
2022-08-19T14:18:48.567Z,34.14
2022-08-19T14:23:50.081Z,34.14
2022-08-19T14:28:52.360Z,34.02
2022-08-19T14:33:53.624Z,33.90
2022-08-19T14:38:55.092Z,33.75
2022-08-19T14:43:57.277Z,33.62
2022-08-19T14:48:59.848Z,33.62
2022-08-19T14:54:01.309Z,33.79
2022-08-19T14:59:03.096Z,34.00
2022-08-19T15:04:04.361Z,34.17
2022-08-19T15:09:05.876Z,34.28
2022-08-19T15:14:07.058Z,34.34
2022-08-19T15:19:09.678Z,34.39
2022-08-19T15:24:10.912Z,34.37
2022-08-19T15:29:16.001Z,34.26
2022-08-19T15:34:17.658Z,34.19
2022-08-19T15:39:19.187Z,34.11
2022-08-19T15:44:21.401Z,33.87
2022-08-19T15:49:22.509Z,33.54
2022-08-19T15:54:23.723Z,33.31
2022-08-19T15:59:47.457Z,33.17
2022-08-19T16:05:06.830Z,33.09
2022-08-19T16:10:18.648Z,33.06
2022-08-19T16:15:30.242Z,33.03
2022-08-19T16:20:31.737Z,33.30
2022-08-19T16:25:35.583Z,33.14
2022-08-19T16:30:38.822Z,32.94
2022-08-19T16:35:39.975Z,32.77
2022-08-19T16:40:44.985Z,32.57
2022-08-19T16:45:52.188Z,32.38
2022-08-19T16:50:53.335Z,32.44
2022-08-19T16:55:55.837Z,32.37
2022-08-19T17:01:04.159Z,32.11
2022-08-19T17:06:26.053Z,31.84
2022-08-19T17:11:29.100Z,31.54
2022-08-19T17:16:34.206Z,31.26
2022-08-19T17:21:37.095Z,31.00
2022-08-19T17:26:38.582Z,30.78
2022-08-19T17:31:39.741Z,30.57
2022-08-19T17:36:40.847Z,30.36
2022-08-19T17:41:43.404Z,30.16
2022-08-19T17:46:45.893Z,29.97
2022-08-19T17:51:48.589Z,29.78
2022-08-19T17:56:49.762Z,29.58
2022-08-19T18:01:53.827Z,29.40
2022-08-19T18:06:56.684Z,29.22
2022-08-19T18:11:58.754Z,29.06
2022-08-19T18:17:05.476Z,28.92
2022-08-19T18:22:06.665Z,28.79
2022-08-19T18:27:09.077Z,28.65
2022-08-19T18:32:13.411Z,28.52
2022-08-19T18:37:14.597Z,28.42
2022-08-19T18:42:35.732Z,28.35
2022-08-19T18:47:54.930Z,28.28
2022-08-19T18:52:56.231Z,28.21
2022-08-19T18:57:58.262Z,28.14
2022-08-19T19:02:59.367Z,28.07
2022-08-19T19:08:01.008Z,27.99
2022-08-19T19:13:02.220Z,27.91
2022-08-19T19:18:03.578Z,27.83
2022-08-19T19:23:05.186Z,27.74
2022-08-19T19:28:06.614Z,27.65
2022-08-19T19:33:07.680Z,27.58
2022-08-19T19:38:08.894Z,27.52
2022-08-19T19:43:10.292Z,27.48
2022-08-19T19:48:14.080Z,27.44
2022-08-19T19:53:15.401Z,27.39
2022-08-19T19:58:17.870Z,27.34
2022-08-19T20:03:22.438Z,27.30
2022-08-19T20:08:42.565Z,27.28
2022-08-19T20:13:43.774Z,27.25
2022-08-19T20:18:44.904Z,27.23
2022-08-19T20:24:09.425Z,27.20
2022-08-19T20:29:13.832Z,27.17
2022-08-19T20:34:28.952Z,27.14
2022-08-19T20:39:30.314Z,27.11
2022-08-19T20:44:31.835Z,27.08
2022-08-19T20:49:34.422Z,27.03
2022-08-19T20:54:35.537Z,26.98
2022-08-19T20:59:37.068Z,26.94
2022-08-19T21:04:38.181Z,26.92
2022-08-19T21:09:39.439Z,26.91
2022-08-19T21:14:41.872Z,26.92
2022-08-19T21:19:43.377Z,26.94
2022-08-19T21:24:44.505Z,26.95
2022-08-19T21:29:45.665Z,26.96
2022-08-19T21:34:47.717Z,26.95
2022-08-19T21:39:49.693Z,26.92
2022-08-19T21:44:51.284Z,26.90
2022-08-19T21:49:52.411Z,26.88
2022-08-19T21:54:54.943Z,26.84
2022-08-19T21:59:56.102Z,26.80
2022-08-19T22:04:57.276Z,26.77
2022-08-19T22:09:58.424Z,26.76
2022-08-19T22:15:01.002Z,26.75
2022-08-19T22:20:04.949Z,26.72
2022-08-19T22:25:13.072Z,26.70
2022-08-19T22:30:34.035Z,26.69
2022-08-19T22:35:37.711Z,26.68
2022-08-19T22:40:42.240Z,26.65
2022-08-19T22:45:44.778Z,26.61
2022-08-19T22:51:07.700Z,26.56
2022-08-19T22:56:14.983Z,26.50
2022-08-19T23:01:27.452Z,26.44
2022-08-19T23:06:33.768Z,26.41
2022-08-19T23:11:41.921Z,26.37
2022-08-19T23:16:49.090Z,26.21
2022-08-19T23:21:52.125Z,25.97
2022-08-19T23:27:12.042Z,25.79
2022-08-19T23:32:13.220Z,25.61
2022-08-19T23:37:17.620Z,25.48
2022-08-19T23:42:19.816Z,25.41
2022-08-19T23:47:21.156Z,25.32
2022-08-19T23:52:22.441Z,25.19
2022-08-19T23:57:23.613Z,24.85
